Language: 


Des rapports , des résumés tant et plus, au choix de chacun....


Données Historiques de Météogheer
Journalier Rapport pour Janvier 21, 2017 Unitée:  Les deux    Impériale   Métrique
Suivant Jour »
Journalier Hebdomadaire Mensuel Annuel Sur mesure
  Max: Min: Moyenne:
Température: 39.9 °F /  4.4 °C 23 °F /  -5.0 °C 29.1 °F /  -1.6 °C
Point de rosée: 29.7 °F /  -1.3 °C 18.3 °F /  -7.6 °C 21.6 °F /  -5.8 °C
Humidité: 90% 0% 74%
Vent: 6mph /  9.7km/h - 2.9mph /  4.6km/h
Rafales: 7.6mph /  12.2km/h - -
Vent- - ESE
Pression: 30.4 in /  1030.0 hPa 0 in /  0.0 hPa -
Pluie: 0 in /  0.0 mm    
Historical Graphs
 
 
Données tabulaires pour Janvier 21, 2017
Heure Température Point de rosée Pression Vent Vent Rafales Humidité Pluie Taux (Horaire) Conditions
00:04 28.9 °F /  -1.7 °C 20.1 °F /  -6.6 °C 30.4in /  1030.0hPa ENE 3.4mph /  5.5km/h 4.9mph /  7.9km/h 69% 0in /  0.0mm
00:09 28.8 °F /  -1.8 °C 19.9 °F /  -6.7 °C 30.4in /  1030.0hPa ENE 3.1mph /  5.0km/h 4.3mph /  6.9km/h 69% 0in /  0.0mm
00:14 28.8 °F /  -1.8 °C 19.9 °F /  -6.7 °C 30.4in /  1030.0hPa ENE 3.6mph /  5.8km/h 4.3mph /  6.9km/h 69% 0in /  0.0mm
00:19 28.6 °F /  -1.9 °C 20.1 °F /  -6.6 °C 30.4in /  1030.0hPa ENE 3.8mph /  6.1km/h 4.3mph /  6.9km/h 70% 0in /  0.0mm
00:24 28.6 °F /  -1.9 °C 20.1 °F /  -6.6 °C 30.4in /  1029.0hPa ENE 4mph /  6.4km/h 4.3mph /  6.9km/h 70% 0in /  0.0mm
00:25 28.6 °F /  -1.9 °C 20.1 °F /  -6.6 °C 30.4in /  1029.0hPa ENE 3.6mph /  5.8km/h 4.3mph /  6.9km/h 70% 0in /  0.0mm
00:30 28.6 °F /  -1.9 °C 20.1 °F /  -6.6 °C 30.4in /  1029.0hPa ENE 4mph /  6.4km/h 4.3mph /  6.9km/h 70% 0in /  0.0mm
00:35 28.6 °F /  -1.9 °C 20.1 °F /  -6.6 °C 30.4in /  1029.0hPa ENE 3.8mph /  6.1km/h 4.5mph /  7.2km/h 70% 0in /  0.0mm
00:40 28.6 °F /  -1.9 °C 20.1 °F /  -6.6 °C 30.4in /  1029.0hPa ENE 4.9mph /  7.9km/h 4.9mph /  7.9km/h 70% 0in /  0.0mm
00:45 28.6 °F /  -1.9 °C 20.5 °F /  -6.4 °C 30.4in /  1029.0hPa ENE 4.3mph /  6.9km/h 4.9mph /  7.9km/h 71% 0in /  0.0mm
00:50 28.6 °F /  -1.9 °C 20.5 °F /  -6.4 °C 30.4in /  1029.0hPa ENE 4.9mph /  7.9km/h 4.9mph /  7.9km/h 71% 0in /  0.0mm
00:55 28.6 °F /  -1.9 °C 20.3 °F /  -6.5 °C 30.4in /  1029.0hPa ENE 4.3mph /  6.9km/h 5.4mph /  8.7km/h 71% 0in /  0.0mm
01:00 28.6 °F /  -1.9 °C 20.7 °F /  -6.3 °C 30.4in /  1029.0hPa ENE 4.3mph /  6.9km/h 5.4mph /  8.7km/h 72% 0in /  0.0mm
01:05 28.6 °F /  -1.9 °C 20.7 °F /  -6.3 °C 30.4in /  1029.0hPa ENE 4mph /  6.4km/h 4.3mph /  6.9km/h 72% 0in /  0.0mm
01:10 28.2 °F /  -2.1 °C 20.5 °F /  -6.4 °C 30.4in /  1029.0hPa NE 4.3mph /  6.9km/h 5.4mph /  8.7km/h 72% 0in /  0.0mm
01:15 28.2 °F /  -2.1 °C 20.5 °F /  -6.4 °C 30.4in /  1029.0hPa NE 5.4mph /  8.7km/h 5.4mph /  8.7km/h 72% 0in /  0.0mm
01:20 28.2 °F /  -2.1 °C 20.5 °F /  -6.4 °C 30.4in /  1029.0hPa NE 4.3mph /  6.9km/h 5.6mph /  9.0km/h 72% 0in /  0.0mm
01:25 28.2 °F /  -2.1 °C 20.7 °F /  -6.3 °C 30.4in /  1029.0hPa NE 4.3mph /  6.9km/h 5.6mph /  9.0km/h 73% 0in /  0.0mm
01:30 27.9 °F /  -2.3 °C 20.1 °F /  -6.6 °C 30.4in /  1029.0hPa NE 3.6mph /  5.8km/h 5.4mph /  8.7km/h 72% 0in /  0.0mm
01:35 27.7 °F /  -2.4 °C 20.1 °F /  -6.6 °C 30.4in /  1029.0hPa NNE 3.8mph /  6.1km/h 4.5mph /  7.2km/h 73% 0in /  0.0mm
01:40 27.3 °F /  -2.6 °C 19.9 °F /  -6.7 °C 30.4in /  1029.0hPa NNE 4.9mph /  7.9km/h 4.9mph /  7.9km/h 73% 0in /  0.0mm
01:45 27.1 °F /  -2.7 °C 19.9 °F /  -6.7 °C 30.4in /  1029.0hPa NE 4.3mph /  6.9km/h 5.4mph /  8.7km/h 74% 0in /  0.0mm
01:50 27.1 °F /  -2.7 °C 20.1 °F /  -6.6 °C 30.4in /  1029.0hPa NE 4.9mph /  7.9km/h 5.4mph /  8.7km/h 75% 0in /  0.0mm
01:55 27.1 °F /  -2.7 °C 20.1 °F /  -6.6 °C 30.4in /  1029.0hPa NE 4.9mph /  7.9km/h 6mph /  9.7km/h 75% 0in /  0.0mm
02:02 32 °F /  0.0 °C 20.1 °F /  -6.6 °C 0in /  0.0hPa NNE 3.6mph /  5.8km/h 5.6mph /  9.0km/h 0% 0in /  0.0mm
02:07 27 °F /  -2.8 °C 20.3 °F /  -6.5 °C 30.4in /  1028.0hPa NNE 4mph /  6.4km/h 5.4mph /  8.7km/h 76% 0in /  0.0mm
02:12 26.8 °F /  -2.9 °C 20.1 °F /  -6.6 °C 30.4in /  1028.0hPa NE 3.8mph /  6.1km/h 5.4mph /  8.7km/h 76% 0in /  0.0mm
02:17 26.4 °F /  -3.1 °C 19.9 °F /  -6.7 °C 30.4in /  1028.0hPa NNE 3.4mph /  5.5km/h 4.9mph /  7.9km/h 76% 0in /  0.0mm
02:22 26.4 °F /  -3.1 °C 20.3 °F /  -6.5 °C 30.4in /  1029.0hPa NE 3.8mph /  6.1km/h 4.9mph /  7.9km/h 77% 0in /  0.0mm
02:27 26.4 °F /  -3.1 °C 20.3 °F /  -6.5 °C 30.4in /  1029.0hPa NNE 4.7mph /  7.6km/h 4.9mph /  7.9km/h 77% 0in /  0.0mm
02:32 26.4 °F /  -3.1 °C 20.1 °F /  -6.6 °C 30.4in /  1029.0hPa NNE 4mph /  6.4km/h 4.9mph /  7.9km/h 77% 0in /  0.0mm
02:37 26.4 °F /  -3.1 °C 20.1 °F /  -6.6 °C 30.4in /  1029.0hPa North 3.6mph /  5.8km/h 4.9mph /  7.9km/h 77% 0in /  0.0mm
02:42 26.2 °F /  -3.2 °C 19.9 °F /  -6.7 °C 30.4in /  1029.0hPa NNE 3.1mph /  5.0km/h 4.7mph /  7.6km/h 77% 0in /  0.0mm
02:47 26.2 °F /  -3.2 °C 20.3 °F /  -6.5 °C 30.4in /  1029.0hPa NNE 3.8mph /  6.1km/h 4.7mph /  7.6km/h 78% 0in /  0.0mm
02:52 26.2 °F /  -3.2 °C 20.3 °F /  -6.5 °C 30.4in /  1029.0hPa North 3.8mph /  6.1km/h 4.5mph /  7.2km/h 78% 0in /  0.0mm
02:57 26.4 °F /  -3.1 °C 20.7 °F /  -6.3 °C 30.4in /  1029.0hPa NE 3.4mph /  5.5km/h 4.5mph /  7.2km/h 79% 0in /  0.0mm
03:02 26.2 °F /  -3.2 °C 20.7 °F /  -6.3 °C 30.4in /  1029.0hPa NNE 4.3mph /  6.9km/h 4.9mph /  7.9km/h 79% 0in /  0.0mm
03:07 26.2 °F /  -3.2 °C 20.7 °F /  -6.3 °C 30.4in /  1029.0hPa NNE 4mph /  6.4km/h 4.9mph /  7.9km/h 79% 0in /  0.0mm
03:12 26.1 °F /  -3.3 °C 20.5 °F /  -6.4 °C 30.4in /  1029.0hPa North 4.7mph /  7.6km/h 4.7mph /  7.6km/h 79% 0in /  0.0mm
03:17 26.1 °F /  -3.3 °C 20.5 °F /  -6.4 °C 30.4in /  1029.0hPa North 4.3mph /  6.9km/h 5.4mph /  8.7km/h 79% 0in /  0.0mm
03:22 26.1 °F /  -3.3 °C 20.5 °F /  -6.4 °C 30.4in /  1029.0hPa NNE 4mph /  6.4km/h 5.6mph /  9.0km/h 79% 0in /  0.0mm
03:27 25.9 °F /  -3.4 °C 20.1 °F /  -6.6 °C 30.4in /  1029.0hPa NE 5.4mph /  8.7km/h 5.6mph /  9.0km/h 79% 0in /  0.0mm
03:32 25.9 °F /  -3.4 °C 20.1 °F /  -6.6 °C 30.4in /  1029.0hPa NE 4.9mph /  7.9km/h 5.6mph /  9.0km/h 79% 0in /  0.0mm
03:37 25.9 °F /  -3.4 °C 20.5 °F /  -6.4 °C 30.4in /  1029.0hPa NE 5.6mph /  9.0km/h 6mph /  9.7km/h 80% 0in /  0.0mm
03:42 26.1 °F /  -3.3 °C 20.7 °F /  -6.3 °C 30.4in /  1029.0hPa NNE 4.3mph /  6.9km/h 6mph /  9.7km/h 80% 0in /  0.0mm
03:47 26.1 °F /  -3.3 °C 20.7 °F /  -6.3 °C 30.4in /  1029.0hPa NE 4mph /  6.4km/h 5.8mph /  9.3km/h 80% 0in /  0.0mm
03:52 26.1 °F /  -3.3 °C 20.7 °F /  -6.3 °C 30.4in /  1029.0hPa NE 5.6mph /  9.0km/h 5.6mph /  9.0km/h 80% 0in /  0.0mm
03:57 26.1 °F /  -3.3 °C 20.7 °F /  -6.3 °C 30.4in /  1029.0hPa NE 5.4mph /  8.7km/h 5.6mph /  9.0km/h 80% 0in /  0.0mm
04:02 25.9 °F /  -3.4 °C 20.5 °F /  -6.4 °C 30.4in /  1029.0hPa NNE 5.8mph /  9.3km/h 5.8mph /  9.3km/h 80% 0in /  0.0mm
04:07 25.9 °F /  -3.4 °C 20.5 °F /  -6.4 °C 30.4in /  1029.0hPa NNE 4.9mph /  7.9km/h 5.8mph /  9.3km/h 80% 0in /  0.0mm
04:12 25.5 °F /  -3.6 °C 20.3 °F /  -6.5 °C 30.4in /  1029.0hPa NE 4.3mph /  6.9km/h 5.8mph /  9.3km/h 80% 0in /  0.0mm
04:17 25.5 °F /  -3.6 °C 20.3 °F /  -6.5 °C 30.4in /  1029.0hPa NE 4.3mph /  6.9km/h 5.4mph /  8.7km/h 80% 0in /  0.0mm
04:22 25.5 °F /  -3.6 °C 20.1 °F /  -6.6 °C 30.4in /  1029.0hPa NNE 3.8mph /  6.1km/h 5.4mph /  8.7km/h 80% 0in /  0.0mm
04:27 25.5 °F /  -3.6 °C 20.5 °F /  -6.4 °C 30.4in /  1029.0hPa North 3.6mph /  5.8km/h 5.4mph /  8.7km/h 81% 0in /  0.0mm
04:32 25.5 °F /  -3.6 °C 20.5 °F /  -6.4 °C 30.4in /  1029.0hPa NE 3.6mph /  5.8km/h 5.4mph /  8.7km/h 81% 0in /  0.0mm
04:37 25.5 °F /  -3.6 °C 20.5 °F /  -6.4 °C 30.4in /  1029.0hPa NNE 3.6mph /  5.8km/h 4.7mph /  7.6km/h 81% 0in /  0.0mm
04:42 25.5 °F /  -3.6 °C 20.5 °F /  -6.4 °C 30.4in /  1029.0hPa NE 3.4mph /  5.5km/h 4.7mph /  7.6km/h 81% 0in /  0.0mm
04:47 25.5 °F /  -3.6 °C 20.7 °F /  -6.3 °C 30.4in /  1029.0hPa NNE 3.1mph /  5.0km/h 4.3mph /  6.9km/h 82% 0in /  0.0mm
04:53 25.5 °F /  -3.6 °C 20.8 °F /  -6.2 °C 30.4in /  1028.0hPa NNW 3.1mph /  5.0km/h 4.9mph /  7.9km/h 82% 0in /  0.0mm
04:58 25.5 °F /  -3.6 °C 20.8 °F /  -6.2 °C 30.4in /  1028.0hPa North 3.1mph /  5.0km/h 4.9mph /  7.9km/h 82% 0in /  0.0mm
05:03 25.5 °F /  -3.6 °C 20.8 °F /  -6.2 °C 30.4in /  1028.0hPa North 3.4mph /  5.5km/h 4.3mph /  6.9km/h 82% 0in /  0.0mm
05:08 25.5 °F /  -3.6 °C 20.8 °F /  -6.2 °C 30.4in /  1028.0hPa NNE 4.3mph /  6.9km/h 4.3mph /  6.9km/h 82% 0in /  0.0mm
05:13 25.5 °F /  -3.6 °C 20.8 °F /  -6.2 °C 30.4in /  1028.0hPa NNE 3.6mph /  5.8km/h 4.9mph /  7.9km/h 82% 0in /  0.0mm
05:18 25.5 °F /  -3.6 °C 20.7 °F /  -6.3 °C 30.4in /  1028.0hPa NNE 3.6mph /  5.8km/h 4.9mph /  7.9km/h 82% 0in /  0.0mm
05:23 25.5 °F /  -3.6 °C 20.7 °F /  -6.3 °C 30.3in /  1027.0hPa NNE 3.4mph /  5.5km/h 4.7mph /  7.6km/h 82% 0in /  0.0mm
05:24 25.5 °F /  -3.6 °C 20.7 °F /  -6.3 °C 30.3in /  1027.0hPa NNE 3.6mph /  5.8km/h 4.7mph /  7.6km/h 82% 0in /  0.0mm
05:29 25.3 °F /  -3.7 °C 20.7 °F /  -6.3 °C 30.3in /  1027.0hPa North 3.8mph /  6.1km/h 4.9mph /  7.9km/h 82% 0in /  0.0mm
05:34 25.3 °F /  -3.7 °C 20.8 °F /  -6.2 °C 30.3in /  1027.0hPa NNE 4mph /  6.4km/h 4.9mph /  7.9km/h 83% 0in /  0.0mm
05:39 25.3 °F /  -3.7 °C 20.8 °F /  -6.2 °C 30.3in /  1027.0hPa NNE 3.4mph /  5.5km/h 4.9mph /  7.9km/h 83% 0in /  0.0mm
05:44 25.5 °F /  -3.6 °C 21 °F /  -6.1 °C 30.3in /  1027.0hPa NNE 4mph /  6.4km/h 6.5mph /  10.5km/h 83% 0in /  0.0mm
05:49 25.3 °F /  -3.7 °C 20.8 °F /  -6.2 °C 30.3in /  1027.0hPa North 4.5mph /  7.2km/h 6.5mph /  10.5km/h 83% 0in /  0.0mm
05:54 25.2 °F /  -3.8 °C 20.7 °F /  -6.3 °C 30.3in /  1027.0hPa NNE 4.3mph /  6.9km/h 6mph /  9.7km/h 83% 0in /  0.0mm
05:59 25.2 °F /  -3.8 °C 20.7 °F /  -6.3 °C 30.3in /  1027.0hPa NNE 4.9mph /  7.9km/h 6mph /  9.7km/h 83% 0in /  0.0mm
06:04 25.2 °F /  -3.8 °C 20.7 °F /  -6.3 °C 30.3in /  1027.0hPa NNE 3.1mph /  5.0km/h 6.5mph /  10.5km/h 83% 0in /  0.0mm
06:09 25.2 °F /  -3.8 °C 21 °F /  -6.1 °C 30.3in /  1027.0hPa NNE 4mph /  6.4km/h 6.5mph /  10.5km/h 84% 0in /  0.0mm
06:14 25 °F /  -3.9 °C 20.8 °F /  -6.2 °C 30.3in /  1027.0hPa NNE 4mph /  6.4km/h 6mph /  9.7km/h 84% 0in /  0.0mm
06:19 25 °F /  -3.9 °C 20.8 °F /  -6.2 °C 30.3in /  1027.0hPa North 4mph /  6.4km/h 5.6mph /  9.0km/h 84% 0in /  0.0mm
06:24 24.8 °F /  -4.0 °C 20.7 °F /  -6.3 °C 30.3in /  1027.0hPa NNE 4mph /  6.4km/h 5.4mph /  8.7km/h 84% 0in /  0.0mm
06:29 24.8 °F /  -4.0 °C 20.7 °F /  -6.3 °C 30.3in /  1027.0hPa NE 4.3mph /  6.9km/h 5.6mph /  9.0km/h 84% 0in /  0.0mm
06:34 24.6 °F /  -4.1 °C 20.5 °F /  -6.4 °C 30.3in /  1027.0hPa NNE 4.3mph /  6.9km/h 5.6mph /  9.0km/h 84% 0in /  0.0mm
06:39 24.6 °F /  -4.1 °C 20.5 °F /  -6.4 °C 30.3in /  1027.0hPa NNE 4.3mph /  6.9km/h 4.7mph /  7.6km/h 84% 0in /  0.0mm
06:44 24.6 °F /  -4.1 °C 20.7 °F /  -6.3 °C 30.3in /  1027.0hPa NE 4mph /  6.4km/h 4.3mph /  6.9km/h 85% 0in /  0.0mm
06:49 24.8 °F /  -4.0 °C 20.8 °F /  -6.2 °C 30.3in /  1027.0hPa NNE 5.4mph /  8.7km/h 5.6mph /  9.0km/h 85% 0in /  0.0mm
06:54 25 °F /  -3.9 °C 21.4 °F /  -5.9 °C 30.3in /  1027.0hPa NNE 4.9mph /  7.9km/h 6mph /  9.7km/h 86% 0in /  0.0mm
06:59 25 °F /  -3.9 °C 21.4 °F /  -5.9 °C 30.3in /  1027.0hPa NNE 4.3mph /  6.9km/h 6.3mph /  10.1km/h 86% 0in /  0.0mm
07:04 25 °F /  -3.9 °C 21.4 °F /  -5.9 °C 30.3in /  1027.0hPa NNE 4.3mph /  6.9km/h 6.5mph /  10.5km/h 86% 0in /  0.0mm
07:09 24.8 °F /  -4.0 °C 20.8 °F /  -6.2 °C 30.3in /  1027.0hPa NNE 4.9mph /  7.9km/h 6.5mph /  10.5km/h 85% 0in /  0.0mm
07:14 24.8 °F /  -4.0 °C 20.8 °F /  -6.2 °C 30.3in /  1027.0hPa NNE 4mph /  6.4km/h 6.5mph /  10.5km/h 85% 0in /  0.0mm
07:19 24.8 °F /  -4.0 °C 21.2 °F /  -6.0 °C 30.3in /  1027.0hPa NNE 4mph /  6.4km/h 5.8mph /  9.3km/h 86% 0in /  0.0mm
07:24 24.8 °F /  -4.0 °C 21.2 °F /  -6.0 °C 30.3in /  1027.0hPa North 4.3mph /  6.9km/h 6.5mph /  10.5km/h 86% 0in /  0.0mm
07:29 24.8 °F /  -4.0 °C 21.2 °F /  -6.0 °C 30.3in /  1027.0hPa NNE 4mph /  6.4km/h 6.5mph /  10.5km/h 86% 0in /  0.0mm
07:34 24.6 °F /  -4.1 °C 21 °F /  -6.1 °C 30.3in /  1027.0hPa North 4.9mph /  7.9km/h 5.8mph /  9.3km/h 86% 0in /  0.0mm
07:39 24.6 °F /  -4.1 °C 21 °F /  -6.1 °C 30.3in /  1027.0hPa NNE 5.4mph /  8.7km/h 5.8mph /  9.3km/h 86% 0in /  0.0mm
07:44 24.6 °F /  -4.1 °C 21 °F /  -6.1 °C 30.3in /  1027.0hPa NNE 4mph /  6.4km/h 5.4mph /  8.7km/h 86% 0in /  0.0mm
07:49 24.4 °F /  -4.2 °C 20.8 °F /  -6.2 °C 30.3in /  1027.0hPa North 4.3mph /  6.9km/h 4.7mph /  7.6km/h 86% 0in /  0.0mm
07:54 24.4 °F /  -4.2 °C 20.8 °F /  -6.2 °C 30.3in /  1027.0hPa North 3.8mph /  6.1km/h 4.9mph /  7.9km/h 86% 0in /  0.0mm
07:59 24.3 °F /  -4.3 °C 20.7 °F /  -6.3 °C 30.3in /  1027.0hPa NNE 3.6mph /  5.8km/h 4.9mph /  7.9km/h 86% 0in /  0.0mm
08:04 24.1 °F /  -4.4 °C 20.1 °F /  -6.6 °C 30.3in /  1027.0hPa NE 3.6mph /  5.8km/h 4.3mph /  6.9km/h 85% 0in /  0.0mm
08:09 23.9 °F /  -4.5 °C 19.9 °F /  -6.7 °C 30.3in /  1027.0hPa North 2.9mph /  4.7km/h 4.3mph /  6.9km/h 85% 0in /  0.0mm
08:14 23.7 °F /  -4.6 °C 19.9 °F /  -6.7 °C 30.3in /  1027.0hPa NNE 2.7mph /  4.3km/h 4.3mph /  6.9km/h 85% 0in /  0.0mm
08:20 23.7 °F /  -4.6 °C 20.1 °F /  -6.6 °C 30.3in /  1027.0hPa NNE 3.8mph /  6.1km/h 4.3mph /  6.9km/h 86% 0in /  0.0mm
08:25 23.7 °F /  -4.6 °C 20.1 °F /  -6.6 °C 30.3in /  1027.0hPa NNE 2.7mph /  4.3km/h 4.3mph /  6.9km/h 86% 0in /  0.0mm
08:30 23.7 °F /  -4.6 °C 20.1 °F /  -6.6 °C 30.3in /  1027.0hPa North 3.8mph /  6.1km/h 4.3mph /  6.9km/h 86% 0in /  0.0mm
08:35 23.7 °F /  -4.6 °C 20.1 °F /  -6.6 °C 30.3in /  1027.0hPa NNE 2.9mph /  4.7km/h 4.3mph /  6.9km/h 86% 0in /  0.0mm
08:40 23.7 °F /  -4.6 °C 20.5 °F /  -6.4 °C 30.3in /  1027.0hPa NNE 3.1mph /  5.0km/h 4mph /  6.4km/h 87% 0in /  0.0mm
08:45 23.7 °F /  -4.6 °C 20.5 °F /  -6.4 °C 30.3in /  1027.0hPa NNE 3.4mph /  5.5km/h 3.8mph /  6.1km/h 87% 0in /  0.0mm
08:50 23.7 °F /  -4.6 °C 20.5 °F /  -6.4 °C 30.3in /  1027.0hPa NNE 3.6mph /  5.8km/h 3.8mph /  6.1km/h 87% 0in /  0.0mm
08:55 23.7 °F /  -4.6 °C 20.5 °F /  -6.4 °C 30.4in /  1028.0hPa North 2.7mph /  4.3km/h 4.3mph /  6.9km/h 87% 0in /  0.0mm
09:00 23.9 °F /  -4.5 °C 20.7 °F /  -6.3 °C 30.4in /  1028.0hPa North 3.6mph /  5.8km/h 4.3mph /  6.9km/h 87% 0in /  0.0mm
09:05 24.1 °F /  -4.4 °C 21 °F /  -6.1 °C 30.4in /  1028.0hPa NNE 5.6mph /  9.0km/h 5.6mph /  9.0km/h 88% 0in /  0.0mm
09:10 24.3 °F /  -4.3 °C 21.2 °F /  -6.0 °C 30.4in /  1028.0hPa North 4mph /  6.4km/h 5.6mph /  9.0km/h 88% 0in /  0.0mm
09:15 24.3 °F /  -4.3 °C 21.2 °F /  -6.0 °C 30.4in /  1028.0hPa North 3.8mph /  6.1km/h 4.9mph /  7.9km/h 88% 0in /  0.0mm
09:20 24.4 °F /  -4.2 °C 21.4 °F /  -5.9 °C 30.4in /  1028.0hPa North 3.8mph /  6.1km/h 4.7mph /  7.6km/h 88% 0in /  0.0mm
09:25 24.4 °F /  -4.2 °C 21.6 °F /  -5.8 °C 30.4in /  1028.0hPa NNE 4.7mph /  7.6km/h 4.7mph /  7.6km/h 89% 0in /  0.0mm
09:30 24.6 °F /  -4.1 °C 21.7 °F /  -5.7 °C 30.4in /  1028.0hPa NNE 3.4mph /  5.5km/h 4.7mph /  7.6km/h 89% 0in /  0.0mm
09:35 25 °F /  -3.9 °C 22.3 °F /  -5.4 °C 30.4in /  1028.0hPa NE 2.7mph /  4.3km/h 4.9mph /  7.9km/h 89% 0in /  0.0mm
09:40 25.3 °F /  -3.7 °C 22.5 °F /  -5.3 °C 30.3in /  1027.0hPa NE 3.4mph /  5.5km/h 4.9mph /  7.9km/h 89% 0in /  0.0mm
09:45 25.5 °F /  -3.6 °C 22.6 °F /  -5.2 °C 30.3in /  1027.0hPa NE 2.9mph /  4.7km/h 3.8mph /  6.1km/h 89% 0in /  0.0mm
09:50 26.1 °F /  -3.3 °C 23.2 °F /  -4.9 °C 30.3in /  1027.0hPa NE 3.1mph /  5.0km/h 3.8mph /  6.1km/h 89% 0in /  0.0mm
09:55 26.4 °F /  -3.1 °C 24.1 °F /  -4.4 °C 30.4in /  1028.0hPa NNE 2.9mph /  4.7km/h 4.7mph /  7.6km/h 90% 0in /  0.0mm
10:00 27.1 °F /  -2.7 °C 24.3 °F /  -4.3 °C 30.4in /  1028.0hPa NNE 3.8mph /  6.1km/h 4.7mph /  7.6km/h 89% 0in /  0.0mm
10:05 27.3 °F /  -2.6 °C 25 °F /  -3.9 °C 30.4in /  1028.0hPa NE 2.5mph /  4.0km/h 4.5mph /  7.2km/h 90% 0in /  0.0mm
10:10 27.9 °F /  -2.3 °C 25.3 °F /  -3.7 °C 30.4in /  1028.0hPa NE 2.5mph /  4.0km/h 4mph /  6.4km/h 90% 0in /  0.0mm
10:15 28.6 °F /  -1.9 °C 25.9 °F /  -3.4 °C 30.4in /  1028.0hPa NE 2.9mph /  4.7km/h 4mph /  6.4km/h 90% 0in /  0.0mm
10:20 29.1 °F /  -1.6 °C 26.2 °F /  -3.2 °C 30.4in /  1028.0hPa NE 3.4mph /  5.5km/h 4.3mph /  6.9km/h 89% 0in /  0.0mm
10:25 29.5 °F /  -1.4 °C 26.8 °F /  -2.9 °C 30.4in /  1028.0hPa East 2mph /  3.2km/h 4.3mph /  6.9km/h 89% 0in /  0.0mm
10:30 30.2 °F /  -1.0 °C 27.3 °F /  -2.6 °C 30.4in /  1028.0hPa NE 2mph /  3.2km/h 4mph /  6.4km/h 89% 0in /  0.0mm
10:35 30.6 °F /  -0.8 °C 27.5 °F /  -2.5 °C 30.4in /  1028.0hPa NNE 3.1mph /  5.0km/h 3.6mph /  5.8km/h 88% 0in /  0.0mm
10:40 30.9 °F /  -0.6 °C 27.9 °F /  -2.3 °C 30.4in /  1028.0hPa ENE 3.6mph /  5.8km/h 4mph /  6.4km/h 88% 0in /  0.0mm
10:45 31.1 °F /  -0.5 °C 28 °F /  -2.2 °C 30.4in /  1028.0hPa NE 4.3mph /  6.9km/h 4.7mph /  7.6km/h 88% 0in /  0.0mm
10:50 31.3 °F /  -0.4 °C 27.9 °F /  -2.3 °C 30.4in /  1028.0hPa NE 3.8mph /  6.1km/h 4.9mph /  7.9km/h 87% 0in /  0.0mm
10:55 31.8 °F /  -0.1 °C 28 °F /  -2.2 °C 30.4in /  1028.0hPa ENE 4.3mph /  6.9km/h 4.9mph /  7.9km/h 86% 0in /  0.0mm
11:00 31.8 °F /  -0.1 °C 28 °F /  -2.2 °C 30.4in /  1028.0hPa East 3.4mph /  5.5km/h 4.9mph /  7.9km/h 86% 0in /  0.0mm
11:05 32.5 °F /  0.3 °C 28.6 °F /  -1.9 °C 30.4in /  1028.0hPa ENE 3.8mph /  6.1km/h 4.9mph /  7.9km/h 85% 0in /  0.0mm
11:10 32.9 °F /  0.5 °C 28.6 °F /  -1.9 °C 30.4in /  1028.0hPa East 3.4mph /  5.5km/h 4.7mph /  7.6km/h 84% 0in /  0.0mm
11:15 33.3 °F /  0.7 °C 28.9 °F /  -1.7 °C 30.4in /  1028.0hPa NE 2.9mph /  4.7km/h 4.7mph /  7.6km/h 84% 0in /  0.0mm
11:20 33.4 °F /  0.8 °C 28.8 °F /  -1.8 °C 30.4in /  1028.0hPa NE 3.8mph /  6.1km/h 3.8mph /  6.1km/h 83% 0in /  0.0mm
11:25 33.8 °F /  1.0 °C 28.6 °F /  -1.9 °C 30.3in /  1027.0hPa East 3.1mph /  5.0km/h 3.8mph /  6.1km/h 81% 0in /  0.0mm
11:30 34.2 °F /  1.2 °C 28.9 °F /  -1.7 °C 30.3in /  1027.0hPa East 3.1mph /  5.0km/h 3.8mph /  6.1km/h 81% 0in /  0.0mm
11:35 34.3 °F /  1.3 °C 28.8 °F /  -1.8 °C 30.3in /  1027.0hPa East 2.9mph /  4.7km/h 3.6mph /  5.8km/h 80% 0in /  0.0mm
11:40 34.9 °F /  1.6 °C 28.8 °F /  -1.8 °C 30.3in /  1027.0hPa ESE 2.7mph /  4.3km/h 3.4mph /  5.5km/h 78% 0in /  0.0mm
11:45 35.2 °F /  1.8 °C 28.9 °F /  -1.7 °C 30.3in /  1027.0hPa ESE 2.7mph /  4.3km/h 3.6mph /  5.8km/h 78% 0in /  0.0mm
11:50 35.4 °F /  1.9 °C 28 °F /  -2.2 °C 30.3in /  1027.0hPa ESE 3.4mph /  5.5km/h 4mph /  6.4km/h 74% 0in /  0.0mm
11:55 35.8 °F /  2.1 °C 28.2 °F /  -2.1 °C 30.3in /  1027.0hPa SSE 2.9mph /  4.7km/h 4.3mph /  6.9km/h 74% 0in /  0.0mm
12:00 36.7 °F /  2.6 °C 29.7 °F /  -1.3 °C 30.3in /  1027.0hPa SSE 0.9mph /  1.4km/h 4.3mph /  6.9km/h 76% 0in /  0.0mm
12:05 36.9 °F /  2.7 °C 29.5 °F /  -1.4 °C 30.3in /  1027.0hPa SSW 4mph /  6.4km/h 6.5mph /  10.5km/h 74% 0in /  0.0mm
12:10 37.6 °F /  3.1 °C 28.9 °F /  -1.7 °C 30.3in /  1027.0hPa South 4.3mph /  6.9km/h 6.5mph /  10.5km/h 71% 0in /  0.0mm
12:15 37.8 °F /  3.2 °C 28.6 °F /  -1.9 °C 30.3in /  1027.0hPa SSE 5.8mph /  9.3km/h 7.6mph /  12.2km/h 69% 0in /  0.0mm
12:20 37.9 °F /  3.3 °C 26.4 °F /  -3.1 °C 30.3in /  1027.0hPa SSW 2mph /  3.2km/h 7.6mph /  12.2km/h 63% 0in /  0.0mm
12:25 37.9 °F /  3.3 °C 26.4 °F /  -3.1 °C 30.3in /  1027.0hPa SSE 2.7mph /  4.3km/h 6.5mph /  10.5km/h 63% 0in /  0.0mm
12:30 37.9 °F /  3.3 °C 26.4 °F /  -3.1 °C 30.3in /  1027.0hPa SSE 3.1mph /  5.0km/h 6.5mph /  10.5km/h 63% 0in /  0.0mm
12:35 37.9 °F /  3.3 °C 26.4 °F /  -3.1 °C 30.3in /  1027.0hPa SSW 3.1mph /  5.0km/h 6.3mph /  10.1km/h 63% 0in /  0.0mm
12:40 37.9 °F /  3.3 °C 26.4 °F /  -3.1 °C 30.3in /  1026.0hPa South 2.7mph /  4.3km/h 6mph /  9.7km/h 63% 0in /  0.0mm
12:45 38.7 °F /  3.7 °C 25.5 °F /  -3.6 °C 30.3in /  1026.0hPa SSW 5.4mph /  8.7km/h 6mph /  9.7km/h 59% 0in /  0.0mm
12:50 38.7 °F /  3.7 °C 25.5 °F /  -3.6 °C 30.3in /  1026.0hPa South 5.6mph /  9.0km/h 6.5mph /  10.5km/h 59% 0in /  0.0mm
12:55 38.7 °F /  3.7 °C 25.2 °F /  -3.8 °C 30.3in /  1027.0hPa South 4mph /  6.4km/h 6.5mph /  10.5km/h 58% 0in /  0.0mm
13:00 38.8 °F /  3.8 °C 25 °F /  -3.9 °C 30.3in /  1027.0hPa SSE 4.9mph /  7.9km/h 6mph /  9.7km/h 57% 0in /  0.0mm
13:05 38.8 °F /  3.8 °C 25 °F /  -3.9 °C 30.3in /  1027.0hPa South 5.8mph /  9.3km/h 5.8mph /  9.3km/h 57% 0in /  0.0mm
13:10 38.8 °F /  3.8 °C 24.4 °F /  -4.2 °C 30.3in /  1026.0hPa South 4mph /  6.4km/h 5.8mph /  9.3km/h 56% 0in /  0.0mm
13:15 39 °F /  3.9 °C 24.6 °F /  -4.1 °C 30.3in /  1026.0hPa South 4.3mph /  6.9km/h 5.4mph /  8.7km/h 56% 0in /  0.0mm
13:20 39.2 °F /  4.0 °C 24.4 °F /  -4.2 °C 30.3in /  1026.0hPa SSE 6mph /  9.7km/h 6.3mph /  10.1km/h 55% 0in /  0.0mm
13:25 39.2 °F /  4.0 °C 24.4 °F /  -4.2 °C 30.3in /  1027.0hPa SSW 5.6mph /  9.0km/h 6.3mph /  10.1km/h 55% 0in /  0.0mm
13:30 39 °F /  3.9 °C 24.3 °F /  -4.3 °C 30.3in /  1027.0hPa South 6mph /  9.7km/h 6.5mph /  10.5km/h 55% 0in /  0.0mm
13:35 39 °F /  3.9 °C 23.7 °F /  -4.6 °C 30.3in /  1027.0hPa South 3.4mph /  5.5km/h 6.5mph /  10.5km/h 54% 0in /  0.0mm
13:40 39.2 °F /  4.0 °C 24.1 °F /  -4.4 °C 30.3in /  1027.0hPa SSW 3.4mph /  5.5km/h 5.4mph /  8.7km/h 54% 0in /  0.0mm
13:45 39.2 °F /  4.0 °C 23.5 °F /  -4.7 °C 30.3in /  1027.0hPa South 3.8mph /  6.1km/h 7.4mph /  11.9km/h 53% 0in /  0.0mm
13:50 39.2 °F /  4.0 °C 24.1 °F /  -4.4 °C 30.3in /  1027.0hPa SSE 2.9mph /  4.7km/h 7.4mph /  11.9km/h 54% 0in /  0.0mm
13:55 39.2 °F /  4.0 °C 24.1 °F /  -4.4 °C 30.3in /  1027.0hPa SSW 3.1mph /  5.0km/h 6mph /  9.7km/h 54% 0in /  0.0mm
14:00 39.2 °F /  4.0 °C 23.5 °F /  -4.7 °C 30.3in /  1027.0hPa SSW 4mph /  6.4km/h 6mph /  9.7km/h 53% 0in /  0.0mm
14:05 39.4 °F /  4.1 °C 23.7 °F /  -4.6 °C 30.3in /  1027.0hPa SSE 3.4mph /  5.5km/h 6mph /  9.7km/h 53% 0in /  0.0mm
14:10 39.6 °F /  4.2 °C 24.3 °F /  -4.3 °C 30.3in /  1026.0hPa South 2.7mph /  4.3km/h 6mph /  9.7km/h 54% 0in /  0.0mm
14:15 39.6 °F /  4.2 °C 23.7 °F /  -4.6 °C 30.3in /  1026.0hPa SSE 5.4mph /  8.7km/h 6mph /  9.7km/h 53% 0in /  0.0mm
14:20 39.2 °F /  4.0 °C 23.5 °F /  -4.7 °C 30.3in /  1026.0hPa SSW 1.3mph /  2.1km/h 5.4mph /  8.7km/h 53% 0in /  0.0mm
14:25 39.6 °F /  4.2 °C 24.3 °F /  -4.3 °C 30.3in /  1026.0hPa SSE 2mph /  3.2km/h 5.4mph /  8.7km/h 54% 0in /  0.0mm
14:30 39.7 °F /  4.3 °C 24.1 °F /  -4.4 °C 30.3in /  1026.0hPa SSE 3.4mph /  5.5km/h 4.9mph /  7.9km/h 53% 0in /  0.0mm
14:35 39.9 °F /  4.4 °C 24.3 °F /  -4.3 °C 30.3in /  1026.0hPa South 2.5mph /  4.0km/h 4.9mph /  7.9km/h 53% 0in /  0.0mm
14:40 39.7 °F /  4.3 °C 24.1 °F /  -4.4 °C 30.3in /  1026.0hPa SSE 4.9mph /  7.9km/h 4.9mph /  7.9km/h 53% 0in /  0.0mm
14:45 39.6 °F /  4.2 °C 23.4 °F /  -4.8 °C 30.3in /  1026.0hPa South 2.7mph /  4.3km/h 4.9mph /  7.9km/h 52% 0in /  0.0mm
14:50 39.6 °F /  4.2 °C 23.4 °F /  -4.8 °C 30.3in /  1026.0hPa SSE 2.5mph /  4.0km/h 4.9mph /  7.9km/h 52% 0in /  0.0mm
14:55 39.7 °F /  4.3 °C 23.5 °F /  -4.7 °C 30.3in /  1026.0hPa SE 4.7mph /  7.6km/h 4.7mph /  7.6km/h 52% 0in /  0.0mm
15:00 39.6 °F /  4.2 °C 23.4 °F /  -4.8 °C 30.3in /  1026.0hPa SE 4.3mph /  6.9km/h 4.9mph /  7.9km/h 52% 0in /  0.0mm
15:05 39.6 °F /  4.2 °C 23.4 °F /  -4.8 °C 30.3in /  1026.0hPa SSE 3.8mph /  6.1km/h 4.9mph /  7.9km/h 52% 0in /  0.0mm
15:10 39.4 °F /  4.1 °C 23.2 °F /  -4.9 °C 30.3in /  1026.0hPa ESE 2mph /  3.2km/h 4.7mph /  7.6km/h 52% 0in /  0.0mm
15:15 39.4 °F /  4.1 °C 23.2 °F /  -4.9 °C 30.3in /  1026.0hPa SSE 4.3mph /  6.9km/h 5.6mph /  9.0km/h 52% 0in /  0.0mm
15:20 39 °F /  3.9 °C 22.8 °F /  -5.1 °C 30.3in /  1026.0hPa SSE 4mph /  6.4km/h 5.6mph /  9.0km/h 52% 0in /  0.0mm
15:25 38.7 °F /  3.7 °C 22.6 °F /  -5.2 °C 30.3in /  1026.0hPa SSE 3.1mph /  5.0km/h 5.6mph /  9.0km/h 52% 0in /  0.0mm
15:30 38.8 °F /  3.8 °C 23.2 °F /  -4.9 °C 30.3in /  1026.0hPa South 3.4mph /  5.5km/h 4mph /  6.4km/h 53% 0in /  0.0mm
15:35 39 °F /  3.9 °C 22.8 °F /  -5.1 °C 30.3in /  1026.0hPa South 2.9mph /  4.7km/h 4mph /  6.4km/h 52% 0in /  0.0mm
15:40 38.8 °F /  3.8 °C 23.2 °F /  -4.9 °C 30.3in /  1026.0hPa SE 3.1mph /  5.0km/h 5.8mph /  9.3km/h 53% 0in /  0.0mm
15:45 38.7 °F /  3.7 °C 23 °F /  -5.0 °C 30.3in /  1026.0hPa SSE 3.6mph /  5.8km/h 5.8mph /  9.3km/h 53% 0in /  0.0mm
15:50 38.5 °F /  3.6 °C 22.3 °F /  -5.4 °C 30.3in /  1026.0hPa SE 4mph /  6.4km/h 5.8mph /  9.3km/h 52% 0in /  0.0mm
15:55 38.5 °F /  3.6 °C 22.6 °F /  -5.2 °C 30.3in /  1026.0hPa SSE 4.7mph /  7.6km/h 5.8mph /  9.3km/h 53% 0in /  0.0mm
16:00 38.5 °F /  3.6 °C 22.6 °F /  -5.2 °C 30.3in /  1026.0hPa SSE 2.7mph /  4.3km/h 5.6mph /  9.0km/h 53% 0in /  0.0mm
16:05 38.5 °F /  3.6 °C 22.6 °F /  -5.2 °C 30.3in /  1026.0hPa SSE 3.6mph /  5.8km/h 4mph /  6.4km/h 53% 0in /  0.0mm
16:10 38.1 °F /  3.4 °C 22.5 °F /  -5.3 °C 30.3in /  1026.0hPa South 2.5mph /  4.0km/h 4.3mph /  6.9km/h 53% 0in /  0.0mm
16:15 37.9 °F /  3.3 °C 22.5 °F /  -5.3 °C 30.3in /  1026.0hPa SSE 3.8mph /  6.1km/h 4.7mph /  7.6km/h 53% 0in /  0.0mm
16:20 37.8 °F /  3.2 °C 22.3 °F /  -5.4 °C 30.3in /  1026.0hPa South 1.6mph /  2.6km/h 5.4mph /  8.7km/h 53% 0in /  0.0mm
16:25 37.2 °F /  2.9 °C 21.7 °F /  -5.7 °C 30.3in /  1026.0hPa SSE 2.9mph /  4.7km/h 5.4mph /  8.7km/h 53% 0in /  0.0mm
16:30 36.7 °F /  2.6 °C 21 °F /  -6.1 °C 30.3in /  1026.0hPa SSE 3.6mph /  5.8km/h 3.8mph /  6.1km/h 53% 0in /  0.0mm
16:35 36.1 °F /  2.3 °C 21 °F /  -6.1 °C 30.3in /  1026.0hPa South 2.5mph /  4.0km/h 3.6mph /  5.8km/h 54% 0in /  0.0mm
16:40 35.8 °F /  2.1 °C 20.7 °F /  -6.3 °C 30.3in /  1026.0hPa South 2mph /  3.2km/h 3.6mph /  5.8km/h 54% 0in /  0.0mm
16:45 35.2 °F /  1.8 °C 20.7 °F /  -6.3 °C 30.3in /  1026.0hPa South 1.6mph /  2.6km/h 3.4mph /  5.5km/h 55% 0in /  0.0mm
16:50 34.9 °F /  1.6 °C 20.7 °F /  -6.3 °C 30.3in /  1026.0hPa South 1.3mph /  2.1km/h 2.5mph /  4.0km/h 56% 0in /  0.0mm
16:55 34.3 °F /  1.3 °C 20.1 °F /  -6.6 °C 30.3in /  1026.0hPa SSE 2.5mph /  4.0km/h 2.5mph /  4.0km/h 56% 0in /  0.0mm
17:00 33.8 °F /  1.0 °C 19.8 °F /  -6.8 °C 30.3in /  1026.0hPa SSE 1.6mph /  2.6km/h 3.1mph /  5.0km/h 56% 0in /  0.0mm
17:05 33.3 °F /  0.7 °C 19.6 °F /  -6.9 °C 30.3in /  1026.0hPa SSE 1.1mph /  1.8km/h 3.1mph /  5.0km/h 57% 0in /  0.0mm
17:10 32.7 °F /  0.4 °C 19.6 °F /  -6.9 °C 30.3in /  1026.0hPa SSE 1.1mph /  1.8km/h 2.7mph /  4.3km/h 58% 0in /  0.0mm
17:15 32.4 °F /  0.2 °C 19.2 °F /  -7.1 °C 30.3in /  1026.0hPa SSE 2.9mph /  4.7km/h 2.9mph /  4.7km/h 58% 0in /  0.0mm
17:20 31.8 °F /  -0.1 °C 19 °F /  -7.2 °C 30.3in /  1026.0hPa SSE 1.6mph /  2.6km/h 2.9mph /  4.7km/h 59% 0in /  0.0mm
17:25 31.5 °F /  -0.3 °C 19.2 °F /  -7.1 °C 30.3in /  1026.0hPa SE 2.5mph /  4.0km/h 3.4mph /  5.5km/h 60% 0in /  0.0mm
17:30 31.1 °F /  -0.5 °C 19.2 °F /  -7.1 °C 30.3in /  1026.0hPa ESE 1.1mph /  1.8km/h 3.4mph /  5.5km/h 61% 0in /  0.0mm
17:35 30.7 °F /  -0.7 °C 18.9 °F /  -7.3 °C 30.3in /  1026.0hPa SE 0.9mph /  1.4km/h 2.7mph /  4.3km/h 61% 0in /  0.0mm
17:40 30.2 °F /  -1.0 °C 18.9 °F /  -7.3 °C 30.3in /  1026.0hPa Calm   2mph /  3.2km/h 62% 0in /  0.0mm
17:45 29.7 °F /  -1.3 °C 18.3 °F /  -7.6 °C 30.3in /  1026.0hPa Calm   1.6mph /  2.6km/h 62% 0in /  0.0mm
17:50 29.5 °F /  -1.4 °C 18.3 °F /  -7.6 °C 30.3in /  1026.0hPa Calm   1.6mph /  2.6km/h 63% 0in /  0.0mm
17:55 28.9 °F /  -1.7 °C 18.3 °F /  -7.6 °C 30.3in /  1026.0hPa Calm     64% 0in /  0.0mm
18:00 28.9 °F /  -1.7 °C 18.7 °F /  -7.4 °C 30.3in /  1026.0hPa Calm   2.7mph /  4.3km/h 65% 0in /  0.0mm
18:05 28.8 °F /  -1.8 °C 18.9 °F /  -7.3 °C 30.3in /  1026.0hPa East 1.1mph /  1.8km/h 2.7mph /  4.3km/h 66% 0in /  0.0mm
18:10 28.6 °F /  -1.9 °C 19 °F /  -7.2 °C 30.3in /  1026.0hPa NE 1.6mph /  2.6km/h 2mph /  3.2km/h 67% 0in /  0.0mm
18:15 28.6 °F /  -1.9 °C 19.4 °F /  -7.0 °C 30.3in /  1026.0hPa East 1.6mph /  2.6km/h 2mph /  3.2km/h 68% 0in /  0.0mm
18:20 28.6 °F /  -1.9 °C 19.6 °F /  -6.9 °C 30.3in /  1026.0hPa Calm   2.5mph /  4.0km/h 69% 0in /  0.0mm
18:25 28 °F /  -2.2 °C 19.2 °F /  -7.1 °C 30.3in /  1026.0hPa Calm   2.5mph /  4.0km/h 69% 0in /  0.0mm
18:30 28 °F /  -2.2 °C 19.6 °F /  -6.9 °C 30.3in /  1026.0hPa NE 1.1mph /  1.8km/h 2mph /  3.2km/h 70% 0in /  0.0mm
18:35 28 °F /  -2.2 °C 19.6 °F /  -6.9 °C 30.3in /  1026.0hPa ENE 2.2mph /  3.5km/h 2.2mph /  3.5km/h 70% 0in /  0.0mm
18:40 27.9 °F /  -2.3 °C 19.8 °F /  -6.8 °C 30.3in /  1026.0hPa NE 2.5mph /  4.0km/h 2.7mph /  4.3km/h 71% 0in /  0.0mm
18:45 27.9 °F /  -2.3 °C 19.6 °F /  -6.9 °C 30.3in /  1026.0hPa ENE 2mph /  3.2km/h 2.7mph /  4.3km/h 71% 0in /  0.0mm
18:50 27.7 °F /  -2.4 °C 19.8 °F /  -6.8 °C 30.3in /  1026.0hPa ENE 0.9mph /  1.4km/h 2.5mph /  4.0km/h 72% 0in /  0.0mm
18:55 27.1 °F /  -2.7 °C 19.4 °F /  -7.0 °C 30.3in /  1026.0hPa Calm   2mph /  3.2km/h 72% 0in /  0.0mm
19:00 27.1 °F /  -2.7 °C 19.2 °F /  -7.1 °C 30.3in /  1026.0hPa Calm   0.9mph /  1.4km/h 72% 0in /  0.0mm
19:05 26.8 °F /  -2.9 °C 19.2 °F /  -7.1 °C 30.3in /  1026.0hPa Calm     73% 0in /  0.0mm
19:10 26.4 °F /  -3.1 °C 19 °F /  -7.2 °C 30.3in /  1026.0hPa Calm     73% 0in /  0.0mm
19:15 26.4 °F /  -3.1 °C 19.2 °F /  -7.1 °C 30.3in /  1026.0hPa ENE 1.1mph /  1.8km/h 1.1mph /  1.8km/h 74% 0in /  0.0mm
19:20 26.4 °F /  -3.1 °C 19.2 °F /  -7.1 °C 30.3in /  1026.0hPa Calm   2mph /  3.2km/h 74% 0in /  0.0mm
19:25 26.2 °F /  -3.2 °C 19.2 °F /  -7.1 °C 30.3in /  1026.0hPa Calm   2mph /  3.2km/h 75% 0in /  0.0mm
19:30 26.2 °F /  -3.2 °C 19.2 °F /  -7.1 °C 30.3in /  1026.0hPa ENE 0.9mph /  1.4km/h 1.3mph /  2.1km/h 75% 0in /  0.0mm
19:35 26.1 °F /  -3.3 °C 19.2 °F /  -7.1 °C 30.3in /  1026.0hPa Calm   1.3mph /  2.1km/h 75% 0in /  0.0mm
19:40 26.1 °F /  -3.3 °C 19.6 °F /  -6.9 °C 30.3in /  1026.0hPa Calm     76% 0in /  0.0mm
19:45 25.9 °F /  -3.4 °C 19.2 °F /  -7.1 °C 30.3in /  1026.0hPa Calm     76% 0in /  0.0mm
19:50 25.5 °F /  -3.6 °C 19 °F /  -7.2 °C 30.3in /  1026.0hPa Calm     76% 0in /  0.0mm
19:55 25.2 °F /  -3.8 °C 18.7 °F /  -7.4 °C 30.3in /  1026.0hPa Calm     76% 0in /  0.0mm
20:00 25.3 °F /  -3.7 °C 18.9 °F /  -7.3 °C 30.3in /  1026.0hPa Calm     76% 0in /  0.0mm
20:05 25.5 °F /  -3.6 °C 19.2 °F /  -7.1 °C 30.3in /  1026.0hPa Calm     77% 0in /  0.0mm
20:10 25.9 °F /  -3.4 °C 19.6 °F /  -6.9 °C 30.3in /  1026.0hPa Calm     77% 0in /  0.0mm
20:15 25.9 °F /  -3.4 °C 19.9 °F /  -6.7 °C 30.3in /  1026.0hPa Calm     78% 0in /  0.0mm
20:20 26.1 °F /  -3.3 °C 20.1 °F /  -6.6 °C 30.3in /  1026.0hPa Calm     78% 0in /  0.0mm
20:25 25.9 °F /  -3.4 °C 20.1 °F /  -6.6 °C 30.3in /  1026.0hPa Calm     79% 0in /  0.0mm
20:30 25.5 °F /  -3.6 °C 19.6 °F /  -6.9 °C 30.3in /  1026.0hPa Calm     78% 0in /  0.0mm
20:35 25.3 °F /  -3.7 °C 19.4 °F /  -7.0 °C 30.3in /  1026.0hPa Calm     78% 0in /  0.0mm
20:40 25.2 °F /  -3.8 °C 19.2 °F /  -7.1 °C 30.3in /  1026.0hPa Calm     78% 0in /  0.0mm
20:45 25 °F /  -3.9 °C 19.4 °F /  -7.0 °C 30.3in /  1026.0hPa Calm     79% 0in /  0.0mm
20:46 25 °F /  -3.9 °C 19.4 °F /  -7.0 °C 30.3in /  1026.0hPa Calm     79% 0in /  0.0mm
20:51 25 °F /  -3.9 °C 19.4 °F /  -7.0 °C 30.3in /  1026.0hPa Calm     79% 0in /  0.0mm
20:56 25.2 °F /  -3.8 °C 19.6 °F /  -6.9 °C 30.3in /  1026.0hPa Calm     79% 0in /  0.0mm
21:01 25 °F /  -3.9 °C 19.6 °F /  -6.9 °C 30.3in /  1026.0hPa North 2mph /  3.2km/h 2.2mph /  3.5km/h 80% 0in /  0.0mm
21:06 25 °F /  -3.9 °C 19.6 °F /  -6.9 °C 30.3in /  1026.0hPa Calm   2.2mph /  3.5km/h 80% 0in /  0.0mm
21:11 24.8 °F /  -4.0 °C 19.6 °F /  -6.9 °C 30.3in /  1026.0hPa Calm   1.3mph /  2.1km/h 80% 0in /  0.0mm
21:16 24.6 °F /  -4.1 °C 19.2 °F /  -7.1 °C 30.3in /  1026.0hPa Calm     80% 0in /  0.0mm
21:21 24.4 °F /  -4.2 °C 19 °F /  -7.2 °C 30.3in /  1026.0hPa Calm     80% 0in /  0.0mm
21:26 24.1 °F /  -4.4 °C 18.9 °F /  -7.3 °C 30.3in /  1026.0hPa Calm     80% 0in /  0.0mm
21:31 24.1 °F /  -4.4 °C 18.9 °F /  -7.3 °C 30.3in /  1026.0hPa Calm     80% 0in /  0.0mm
21:36 23.9 °F /  -4.5 °C 18.9 °F /  -7.3 °C 30.3in /  1026.0hPa Calm   1.6mph /  2.6km/h 81% 0in /  0.0mm
21:41 24.1 °F /  -4.4 °C 19 °F /  -7.2 °C 30.3in /  1026.0hPa North 1.3mph /  2.1km/h 1.6mph /  2.6km/h 81% 0in /  0.0mm
21:46 24.3 °F /  -4.3 °C 19.2 °F /  -7.1 °C 30.3in /  1026.0hPa North 1.1mph /  1.8km/h 2mph /  3.2km/h 81% 0in /  0.0mm
21:51 24.3 °F /  -4.3 °C 19.6 °F /  -6.9 °C 30.3in /  1026.0hPa North 1.1mph /  1.8km/h 2mph /  3.2km/h 82% 0in /  0.0mm
21:56 24.3 °F /  -4.3 °C 19.6 °F /  -6.9 °C 30.3in /  1026.0hPa North 2mph /  3.2km/h 2.2mph /  3.5km/h 82% 0in /  0.0mm
22:01 24.6 °F /  -4.1 °C 20.1 °F /  -6.6 °C 30.3in /  1026.0hPa NNE 2mph /  3.2km/h 2.5mph /  4.0km/h 83% 0in /  0.0mm
22:06 25 °F /  -3.9 °C 20.8 °F /  -6.2 °C 30.3in /  1026.0hPa NNE 1.6mph /  2.6km/h 2.5mph /  4.0km/h 84% 0in /  0.0mm
22:11 25.2 °F /  -3.8 °C 21 °F /  -6.1 °C 30.3in /  1026.0hPa North 2.2mph /  3.5km/h 2.7mph /  4.3km/h 84% 0in /  0.0mm
22:16 25.2 °F /  -3.8 °C 21 °F /  -6.1 °C 30.3in /  1026.0hPa North 1.6mph /  2.6km/h 2.7mph /  4.3km/h 84% 0in /  0.0mm
22:21 25 °F /  -3.9 °C 20.8 °F /  -6.2 °C 30.3in /  1026.0hPa NNE 1.3mph /  2.1km/h 2.2mph /  3.5km/h 84% 0in /  0.0mm
22:26 24.8 °F /  -4.0 °C 20.7 °F /  -6.3 °C 30.3in /  1026.0hPa NE 2.7mph /  4.3km/h 2.7mph /  4.3km/h 84% 0in /  0.0mm
22:31 24.8 °F /  -4.0 °C 20.7 °F /  -6.3 °C 30.3in /  1026.0hPa NNE 2.5mph /  4.0km/h 2.9mph /  4.7km/h 84% 0in /  0.0mm
22:36 24.8 °F /  -4.0 °C 20.7 °F /  -6.3 °C 30.3in /  1026.0hPa North 1.3mph /  2.1km/h 2.9mph /  4.7km/h 84% 0in /  0.0mm
22:41 25 °F /  -3.9 °C 21 °F /  -6.1 °C 30.3in /  1026.0hPa North 1.1mph /  1.8km/h 2.9mph /  4.7km/h 85% 0in /  0.0mm
22:46 24.8 °F /  -4.0 °C 20.7 °F /  -6.3 °C 30.3in /  1026.0hPa Calm   2.2mph /  3.5km/h 84% 0in /  0.0mm
22:51 24.4 °F /  -4.2 °C 20.3 °F /  -6.5 °C 30.3in /  1026.0hPa Calm   2.2mph /  3.5km/h 84% 0in /  0.0mm
22:56 23.9 °F /  -4.5 °C 19.6 °F /  -6.9 °C 30.3in /  1026.0hPa Calm     83% 0in /  0.0mm
23:01 23.7 °F /  -4.6 °C 19.2 °F /  -7.1 °C 30.3in /  1026.0hPa Calm     83% 0in /  0.0mm
23:06 23.5 °F /  -4.7 °C 19.4 °F /  -7.0 °C 30.3in /  1026.0hPa NE 1.3mph /  2.1km/h 2.2mph /  3.5km/h 84% 0in /  0.0mm
23:11 23.7 °F /  -4.6 °C 19.6 °F /  -6.9 °C 30.3in /  1026.0hPa NE 2.5mph /  4.0km/h 2.7mph /  4.3km/h 84% 0in /  0.0mm
23:16 23.7 °F /  -4.6 °C 19.9 °F /  -6.7 °C 30.3in /  1026.0hPa NNE 1.6mph /  2.6km/h 2.7mph /  4.3km/h 85% 0in /  0.0mm
23:21 23.7 °F /  -4.6 °C 19.9 °F /  -6.7 °C 30.3in /  1026.0hPa NE 2.7mph /  4.3km/h 2.7mph /  4.3km/h 85% 0in /  0.0mm
23:26 23.9 °F /  -4.5 °C 19.9 °F /  -6.7 °C 30.3in /  1026.0hPa ENE 2mph /  3.2km/h 2.7mph /  4.3km/h 85% 0in /  0.0mm
23:31 23.7 °F /  -4.6 °C 20.1 °F /  -6.6 °C 30.3in /  1026.0hPa Calm   2.7mph /  4.3km/h 86% 0in /  0.0mm
23:36 23.5 °F /  -4.7 °C 19.8 °F /  -6.8 °C 30.3in /  1026.0hPa Calm   2mph /  3.2km/h 85% 0in /  0.0mm
23:41 23.4 °F /  -4.8 °C 19.6 °F /  -6.9 °C 30.3in /  1026.0hPa Calm     85% 0in /  0.0mm
23:46 23.2 °F /  -4.9 °C 19.6 °F /  -6.9 °C 30.3in /  1026.0hPa Calm     86% 0in /  0.0mm
23:51 23 °F /  -5.0 °C 19.4 °F /  -7.0 °C 30.3in /  1026.0hPa Calm     86% 0in /  0.0mm
23:56 23 °F /  -5.0 °C 19.4 °F /  -7.0 °C 30.3in /  1027.0hPa Calm   1.3mph /  2.1km/h 86% 0in /  0.0mm
Données Historique de Météo Turbie

Mise a jour : 22/05/2018 04:20:13
Généré par Cumulus 1.9.4 (1099)